createdAt,value
2022-11-28T00:02:05.814Z,70.67
2022-11-28T00:04:32.820Z,70.71
2022-11-28T00:07:00.089Z,70.74
2022-11-28T00:09:27.266Z,70.60
2022-11-28T00:11:54.393Z,70.04
2022-11-28T00:14:21.642Z,70.00
2022-11-28T00:16:48.938Z,70.48
2022-11-28T00:19:16.300Z,70.17
2022-11-28T00:21:43.431Z,69.56
2022-11-28T00:24:12.473Z,69.38
2022-11-28T00:26:41.813Z,68.54
2022-11-28T00:29:11.775Z,68.36
2022-11-28T00:31:42.944Z,68.28
2022-11-28T00:34:13.627Z,68.58
2022-11-28T00:36:41.254Z,68.93
2022-11-28T00:39:08.491Z,69.18
2022-11-28T00:41:35.618Z,69.63
2022-11-28T00:44:02.859Z,69.27
2022-11-28T00:46:30.547Z,69.43
2022-11-28T00:48:58.632Z,68.86
2022-11-28T00:51:28.832Z,68.72
2022-11-28T00:53:58.611Z,69.02
2022-11-28T00:56:28.209Z,69.58
2022-11-28T00:58:56.346Z,70.31
2022-11-28T01:01:25.305Z,69.92
2022-11-28T01:03:54.477Z,69.61
2022-11-28T01:06:43.793Z,69.72
2022-11-28T01:09:14.098Z,70.35
2022-11-28T01:11:42.465Z,70.33
2022-11-28T01:14:10.640Z,70.38
2022-11-28T01:16:37.947Z,70.88
2022-11-28T01:19:05.932Z,70.84
2022-11-28T01:21:33.057Z,71.19
2022-11-28T01:24:00.242Z,71.82
2022-11-28T01:26:29.558Z,72.36
2022-11-28T01:28:57.399Z,73.37
2022-11-28T01:31:26.677Z,72.71
2022-11-28T01:33:54.365Z,72.88
2022-11-28T01:36:22.158Z,73.43
2022-11-28T01:38:50.170Z,73.38
2022-11-28T01:41:24.639Z,73.22
2022-11-28T01:44:29.378Z,73.31
2022-11-28T01:46:56.748Z,73.95
2022-11-28T01:49:36.931Z,73.79
2022-11-28T01:52:10.336Z,73.79
2022-11-28T01:54:38.636Z,72.95
2022-11-28T01:57:11.295Z,73.38
2022-11-28T01:59:44.494Z,73.71
2022-11-28T02:02:20.187Z,73.40
2022-11-28T02:04:48.908Z,72.84
2022-11-28T02:07:16.066Z,72.52
2022-11-28T02:09:43.091Z,71.87
2022-11-28T02:12:51.525Z,72.04
2022-11-28T02:15:44.291Z,72.20
2022-11-28T02:18:29.608Z,72.82
2022-11-28T02:21:05.601Z,72.50
2022-11-28T02:24:20.795Z,71.71
2022-11-28T02:26:50.803Z,71.00
2022-11-28T02:29:34.447Z,70.77
2022-11-28T02:32:21.028Z,71.38
2022-11-28T02:35:05.214Z,71.17
2022-11-28T02:37:35.100Z,71.11
2022-11-28T02:40:27.868Z,71.65
2022-11-28T02:43:36.600Z,71.45
2022-11-28T02:46:18.817Z,70.60
2022-11-28T02:49:12.062Z,70.98
2022-11-28T02:51:47.116Z,70.24
2022-11-28T02:54:17.642Z,70.09
2022-11-28T02:56:49.449Z,69.50
2022-11-28T02:59:46.662Z,69.65
2022-11-28T03:02:27.703Z,69.52
2022-11-28T03:05:24.857Z,69.78
2022-11-28T03:07:51.911Z,69.40
2022-11-28T03:10:30.541Z,70.01
2022-11-28T03:13:19.166Z,70.32
2022-11-28T03:16:14.269Z,69.29
2022-11-28T03:19:03.195Z,70.01
2022-11-28T03:21:30.203Z,70.95
2022-11-28T03:24:06.578Z,71.95
2022-11-28T03:26:58.065Z,72.02
2022-11-28T03:29:54.204Z,71.67
2022-11-28T03:32:30.600Z,71.09
2022-11-28T03:35:05.197Z,71.37
2022-11-28T03:37:40.144Z,70.34
2022-11-28T03:40:14.268Z,70.99
2022-11-28T03:42:50.928Z,70.51
2022-11-28T03:45:25.752Z,71.23
2022-11-28T03:48:03.735Z,71.03
2022-11-28T03:50:45.984Z,70.78
2022-11-28T03:53:23.969Z,70.85
2022-11-28T03:56:00.274Z,70.24
2022-11-28T03:58:50.144Z,69.60
2022-11-28T04:01:25.559Z,70.09
2022-11-28T04:04:02.550Z,70.03
2022-11-28T04:06:47.862Z,69.72
2022-11-28T04:09:20.219Z,70.52
2022-11-28T04:11:56.782Z,71.09
2022-11-28T04:14:26.729Z,70.87
2022-11-28T04:17:25.258Z,72.08
2022-11-28T04:19:58.194Z,71.40
2022-11-28T04:22:31.143Z,70.44
2022-11-28T04:25:04.061Z,70.37
2022-11-28T04:27:38.372Z,70.92
2022-11-28T04:30:08.056Z,70.86
2022-11-28T04:32:40.723Z,70.18
2022-11-28T04:35:12.890Z,70.85
2022-11-28T04:37:44.550Z,71.13
2022-11-28T04:40:13.143Z,72.08
2022-11-28T04:43:04.370Z,71.52
2022-11-28T04:45:33.991Z,71.03
2022-11-28T04:48:01.956Z,70.89
2022-11-28T04:50:38.005Z,70.85
2022-11-28T04:53:19.111Z,70.56
2022-11-28T04:56:02.687Z,70.59
2022-11-28T04:58:40.600Z,70.72
2022-11-28T05:01:11.857Z,70.40
2022-11-28T05:03:42.537Z,70.13
2022-11-28T05:06:10.295Z,69.85
2022-11-28T05:08:37.318Z,70.13
2022-11-28T05:11:04.505Z,69.77
2022-11-28T05:13:31.446Z,69.68
2022-11-28T05:16:01.348Z,70.29
2022-11-28T05:18:28.500Z,69.75
2022-11-28T05:20:55.502Z,70.56
2022-11-28T05:23:22.375Z,70.05
2022-11-28T05:25:50.123Z,69.89
2022-11-28T05:28:17.129Z,70.64
2022-11-28T05:30:44.289Z,70.50
2022-11-28T05:33:11.771Z,70.14
2022-11-28T05:35:43.319Z,70.88
2022-11-28T05:38:13.549Z,69.91
2022-11-28T05:40:44.315Z,70.36
2022-11-28T05:43:11.912Z,70.12
2022-11-28T05:45:45.801Z,70.73
2022-11-28T05:48:12.956Z,70.18
2022-11-28T05:50:41.484Z,70.62
2022-11-28T05:53:08.886Z,69.67
2022-11-28T05:55:37.896Z,69.60
2022-11-28T05:58:05.046Z,69.61
2022-11-28T06:00:32.575Z,68.78
2022-11-28T06:03:01.763Z,69.12
2022-11-28T06:05:42.364Z,69.69
2022-11-28T06:08:14.036Z,69.56
2022-11-28T06:10:41.350Z,69.59
2022-11-28T06:13:08.883Z,69.35
2022-11-28T06:15:38.262Z,68.88
2022-11-28T06:18:09.567Z,68.72
2022-11-28T06:20:36.821Z,68.64
2022-11-28T06:23:03.833Z,68.70
2022-11-28T06:25:30.728Z,69.05
2022-11-28T06:27:57.845Z,68.42
2022-11-28T06:30:25.243Z,68.90
2022-11-28T06:32:52.364Z,68.42
2022-11-28T06:35:19.369Z,68.54
2022-11-28T06:37:46.427Z,68.56
2022-11-28T06:40:13.894Z,68.64
2022-11-28T06:42:40.999Z,69.33
2022-11-28T06:45:09.533Z,69.31
2022-11-28T06:47:36.631Z,69.99
2022-11-28T06:50:04.401Z,70.16
2022-11-28T06:52:31.519Z,70.46
2022-11-28T06:54:58.571Z,70.55
2022-11-28T06:57:25.891Z,70.94
2022-11-28T06:59:52.787Z,70.87
2022-11-28T07:02:19.918Z,70.21
2022-11-28T07:04:47.096Z,70.28
2022-11-28T07:07:16.683Z,70.34
2022-11-28T07:09:46.204Z,69.82
2022-11-28T07:12:16.189Z,70.23
2022-11-28T07:14:43.326Z,69.99
2022-11-28T07:17:10.495Z,70.66
2022-11-28T07:19:38.528Z,70.69
2022-11-28T07:22:06.891Z,70.89
2022-11-28T07:24:38.498Z,70.69
2022-11-28T07:27:09.197Z,70.28
2022-11-28T07:29:39.547Z,71.48
2022-11-28T07:32:09.464Z,71.00
2022-11-28T07:34:36.644Z,69.97
2022-11-28T07:37:21.131Z,68.91
2022-11-28T07:39:50.088Z,68.92
2022-11-28T07:42:17.128Z,68.75
2022-11-28T07:44:55.656Z,69.36
2022-11-28T07:47:25.350Z,69.04
2022-11-28T07:49:52.645Z,68.85
2022-11-28T07:52:20.578Z,68.65
2022-11-28T07:54:49.785Z,68.61
2022-11-28T07:57:19.022Z,68.72
2022-11-28T07:59:48.342Z,69.09
2022-11-28T08:02:15.939Z,69.44
2022-11-28T08:04:48.616Z,69.98
2022-11-28T08:07:22.883Z,70.62
2022-11-28T08:09:52.957Z,70.73
2022-11-28T08:12:20.661Z,70.24
2022-11-28T08:14:47.678Z,69.67
2022-11-28T08:17:15.088Z,69.25
2022-11-28T08:19:44.697Z,69.47
2022-11-28T08:22:11.891Z,69.66
2022-11-28T08:24:39.412Z,70.22
2022-11-28T08:27:09.834Z,70.03
2022-11-28T08:29:37.087Z,68.94
2022-11-28T08:32:04.323Z,69.26
2022-11-28T08:34:31.455Z,68.73
2022-11-28T08:36:58.493Z,68.47
2022-11-28T08:39:25.805Z,68.94
2022-11-28T08:42:00.210Z,68.87
2022-11-28T08:44:32.274Z,68.89
2022-11-28T08:46:59.379Z,69.39
2022-11-28T08:49:26.380Z,68.38
2022-11-28T08:51:53.479Z,68.70
2022-11-28T08:54:21.296Z,69.06
2022-11-28T08:56:50.116Z,69.07
2022-11-28T08:59:17.294Z,68.93
2022-11-28T09:01:44.588Z,69.04
2022-11-28T09:04:11.778Z,68.47
2022-11-28T09:06:40.349Z,68.48
2022-11-28T09:09:10.996Z,69.17
2022-11-28T09:11:41.363Z,68.28
2022-11-28T09:14:14.616Z,68.02
2022-11-28T09:16:43.213Z,66.81
2022-11-28T09:19:11.188Z,67.33
2022-11-28T09:21:40.200Z,67.63
2022-11-28T09:24:08.058Z,67.56
2022-11-28T09:26:37.745Z,67.59
2022-11-28T09:29:04.852Z,67.87
2022-11-28T09:31:34.801Z,68.00
2022-11-28T09:34:03.574Z,68.13
2022-11-28T09:36:35.543Z,68.00
2022-11-28T09:39:02.759Z,67.46
2022-11-28T09:41:36.032Z,67.77
2022-11-28T09:44:12.258Z,68.68
2022-11-28T09:46:46.466Z,68.93
2022-11-28T09:49:38.577Z,67.87
2022-11-28T09:52:33.978Z,68.17
2022-11-28T09:55:43.776Z,67.40
2022-11-28T09:58:46.679Z,67.64
2022-11-28T10:01:40.851Z,66.80
2022-11-28T10:04:26.291Z,67.27
2022-11-28T10:07:10.261Z,67.16
2022-11-28T10:09:49.609Z,67.53
2022-11-28T10:12:27.693Z,66.98
2022-11-28T10:15:02.744Z,66.83
2022-11-28T10:17:34.857Z,66.06
2022-11-28T10:20:28.989Z,66.36
2022-11-28T10:23:01.211Z,66.28
2022-11-28T10:25:42.787Z,66.69
2022-11-28T10:28:17.776Z,66.79
2022-11-28T10:31:17.230Z,66.28
2022-11-28T10:33:54.651Z,65.70
2022-11-28T10:36:27.606Z,66.31
2022-11-28T10:38:57.100Z,66.12
2022-11-28T10:41:45.522Z,66.62
2022-11-28T10:44:36.149Z,65.67
2022-11-28T10:47:08.075Z,65.85
2022-11-28T10:49:35.145Z,66.57
2022-11-28T10:52:29.066Z,66.62
2022-11-28T10:55:08.175Z,67.91
2022-11-28T10:57:59.982Z,67.63
2022-11-28T11:00:29.971Z,67.32
2022-11-28T11:03:00.936Z,66.86
2022-11-28T11:05:27.878Z,66.17
2022-11-28T11:08:05.322Z,66.63
2022-11-28T11:10:47.038Z,65.74
2022-11-28T11:13:19.637Z,66.10
2022-11-28T11:15:50.211Z,66.15
2022-11-28T11:18:29.854Z,65.65
2022-11-28T11:21:16.329Z,65.49
2022-11-28T11:23:44.865Z,64.69
2022-11-28T11:26:43.787Z,64.95
2022-11-28T11:29:35.712Z,65.65
2022-11-28T11:32:06.427Z,65.19
2022-11-28T11:34:42.923Z,64.72
2022-11-28T11:37:36.139Z,64.84
2022-11-28T11:40:24.602Z,64.04
2022-11-28T11:43:01.557Z,64.36
2022-11-28T11:45:36.026Z,64.49
2022-11-28T11:48:09.199Z,64.25
2022-11-28T11:50:39.910Z,63.53
2022-11-28T11:53:15.070Z,62.58
2022-11-28T11:56:05.243Z,61.55
2022-11-28T11:58:45.354Z,63.28
2022-11-28T12:01:17.290Z,63.93
2022-11-28T12:04:08.464Z,64.57
2022-11-28T12:06:52.158Z,65.02
2022-11-28T12:09:28.689Z,65.40
2022-11-28T12:12:04.338Z,64.76
2022-11-28T12:14:36.833Z,65.32
2022-11-28T12:20:41.156Z,65.46
2022-11-28T12:23:29.964Z,65.24
2022-11-28T12:26:05.723Z,65.22
2022-11-28T12:28:54.220Z,66.01
2022-11-28T12:32:01.283Z,65.18
2022-11-28T12:34:38.290Z,65.25
2022-11-28T12:37:08.161Z,66.47
2022-11-28T12:39:51.316Z,66.07
2022-11-28T12:42:48.130Z,66.04
2022-11-28T12:45:33.034Z,66.18
2022-11-28T12:48:02.061Z,65.80
2022-11-28T12:50:34.113Z,65.90
2022-11-28T12:53:26.585Z,66.09
2022-11-28T12:56:02.668Z,67.21
2022-11-28T12:58:37.233Z,66.42
2022-11-28T13:01:27.261Z,66.43
2022-11-28T13:04:23.055Z,66.52
2022-11-28T13:07:00.998Z,67.10
2022-11-28T13:09:38.835Z,66.55
2022-11-28T13:12:22.099Z,67.00
2022-11-28T13:14:56.526Z,66.73
2022-11-28T13:17:58.277Z,66.41
2022-11-28T13:20:34.321Z,67.26
2022-11-28T13:23:22.804Z,67.55
2022-11-28T13:26:02.179Z,67.46
2022-11-28T13:28:46.911Z,67.11
2022-11-28T13:31:33.718Z,67.54
2022-11-28T13:34:01.369Z,68.40
2022-11-28T13:39:40.348Z,68.08
2022-11-28T13:42:44.324Z,68.66
2022-11-28T13:45:31.509Z,68.11
2022-11-28T13:51:30.209Z,67.67
2022-11-28T13:54:20.064Z,68.56
2022-11-28T13:57:06.243Z,68.02
2022-11-28T13:59:37.088Z,66.93
2022-11-28T14:06:34.163Z,67.54
2022-11-28T14:09:47.677Z,67.64
2022-11-28T14:12:47.656Z,67.46
2022-11-28T14:15:30.763Z,67.24
2022-11-28T14:18:55.711Z,67.46
2022-11-28T14:21:41.639Z,68.21
2022-11-28T14:24:39.509Z,67.04
2022-11-28T14:27:07.853Z,67.25
2022-11-28T14:29:38.721Z,66.19
2022-11-28T14:32:30.313Z,66.19
2022-11-28T14:34:55.145Z,65.08
2022-11-28T14:37:26.463Z,64.83
2022-11-28T14:40:47.353Z,64.69
2022-11-28T14:43:42.735Z,64.93
2022-11-28T14:46:28.950Z,64.35
2022-11-28T14:48:59.985Z,64.45
2022-11-28T14:51:45.785Z,64.44
2022-11-28T14:54:47.748Z,65.09
2022-11-28T14:57:17.946Z,65.02
2022-11-28T14:59:50.261Z,65.87
2022-11-28T15:02:46.570Z,66.18
2022-11-28T15:05:26.416Z,66.60
2022-11-28T15:08:01.726Z,67.58
2022-11-28T15:10:44.931Z,68.00
2022-11-28T15:13:22.113Z,68.04
2022-11-28T15:15:52.791Z,68.20
2022-11-28T15:18:22.624Z,68.81
2022-11-28T15:20:58.777Z,69.02
2022-11-28T15:23:30.343Z,68.46
2022-11-28T15:25:59.189Z,69.77
2022-11-28T15:28:29.253Z,70.38
2022-11-28T15:30:59.350Z,70.38
2022-11-28T15:33:29.881Z,69.66
2022-11-28T15:36:10.618Z,69.51
2022-11-28T15:38:41.641Z,69.45
2022-11-28T15:41:12.450Z,69.00
2022-11-28T15:43:45.731Z,69.24
2022-11-28T15:46:22.966Z,68.31
2022-11-28T15:48:53.666Z,67.77
2022-11-28T15:51:29.268Z,67.54
2022-11-28T15:53:57.522Z,68.45
2022-11-28T15:56:24.522Z,68.02
2022-11-28T15:58:52.779Z,68.31
2022-11-28T16:01:21.633Z,68.51
2022-11-28T16:04:04.078Z,67.39
2022-11-28T16:06:34.722Z,67.20
2022-11-28T16:09:06.582Z,68.20
2022-11-28T16:11:36.660Z,69.07
2022-11-28T16:14:09.844Z,69.07
2022-11-28T16:16:39.180Z,68.19
2022-11-28T16:19:09.070Z,67.86
2022-11-28T16:21:50.993Z,67.89
2022-11-28T16:24:46.627Z,68.30
2022-11-28T16:27:29.481Z,68.31
2022-11-28T16:29:57.468Z,69.08
2022-11-28T16:32:36.838Z,69.66
2022-11-28T16:35:06.013Z,68.91
2022-11-28T16:37:35.141Z,68.99
2022-11-28T16:40:22.082Z,69.15
2022-11-28T16:42:53.772Z,69.43
2022-11-28T16:45:31.054Z,69.05
2022-11-28T16:48:17.589Z,69.01
2022-11-28T16:51:03.001Z,68.68
2022-11-28T16:53:48.433Z,69.21
2022-11-28T16:56:33.964Z,69.16
2022-11-28T16:59:10.187Z,68.90
2022-11-28T17:01:38.135Z,69.07
2022-11-28T17:04:07.567Z,69.12
2022-11-28T17:06:39.172Z,68.21
2022-11-28T17:09:10.866Z,68.08
2022-11-28T17:11:45.714Z,68.54
2022-11-28T17:14:14.131Z,68.33
2022-11-28T17:16:42.323Z,68.20
2022-11-28T17:19:09.498Z,68.79
2022-11-28T17:21:45.330Z,69.02
2022-11-28T17:24:23.064Z,68.73
2022-11-28T17:26:51.414Z,68.10
2022-11-28T17:29:18.969Z,67.74
2022-11-28T17:31:47.374Z,68.25
2022-11-28T17:34:17.368Z,68.21
2022-11-28T17:36:45.173Z,68.69
2022-11-28T17:39:12.674Z,68.33
2022-11-28T17:41:40.949Z,68.37
2022-11-28T17:44:16.189Z,67.67
2022-11-28T17:46:43.244Z,68.12
2022-11-28T17:49:10.455Z,67.59
2022-11-28T17:51:38.780Z,68.07
2022-11-28T17:54:06.176Z,67.98
2022-11-28T17:56:33.657Z,67.65
2022-11-28T17:59:01.141Z,68.57
2022-11-28T18:01:31.193Z,69.50
2022-11-28T18:03:59.397Z,69.12
2022-11-28T18:06:26.740Z,69.19
2022-11-28T18:08:53.853Z,69.04
2022-11-28T18:11:21.635Z,68.60
2022-11-28T18:13:48.829Z,69.05
2022-11-28T18:16:18.776Z,69.79
2022-11-28T18:18:46.469Z,69.62
2022-11-28T18:21:14.108Z,68.85
2022-11-28T18:23:42.475Z,68.39
2022-11-28T18:26:15.735Z,68.70
2022-11-28T18:28:42.926Z,68.31
2022-11-28T18:31:31.679Z,68.61
2022-11-28T18:34:07.886Z,68.49
2022-11-28T18:36:37.314Z,67.69
2022-11-28T18:39:09.114Z,67.65
2022-11-28T18:41:37.335Z,67.41
2022-11-28T18:44:05.220Z,66.91
2022-11-28T18:46:33.605Z,67.01
2022-11-28T18:49:01.742Z,67.15
2022-11-28T18:51:32.184Z,66.81
2022-11-28T18:53:59.936Z,66.42
2022-11-28T18:56:36.426Z,66.38
2022-11-28T18:59:04.491Z,65.57
2022-11-28T19:01:42.238Z,65.75
2022-11-28T19:04:15.587Z,65.92
2022-11-28T19:06:44.828Z,66.44
2022-11-28T19:09:14.588Z,66.37
2022-11-28T19:11:42.841Z,66.35
2022-11-28T19:14:15.882Z,67.38
2022-11-28T19:16:45.286Z,66.74
2022-11-28T19:19:18.600Z,66.62
2022-11-28T19:21:51.569Z,66.48
2022-11-28T19:24:18.947Z,66.30
2022-11-28T19:26:46.438Z,66.82
2022-11-28T19:29:14.468Z,66.63
2022-11-28T19:31:45.609Z,67.21
2022-11-28T19:34:16.025Z,66.86
2022-11-28T19:36:47.899Z,67.11
2022-11-28T19:39:18.773Z,68.11
2022-11-28T19:41:47.529Z,68.47
2022-11-28T19:44:15.760Z,68.99
2022-11-28T19:46:48.455Z,68.77
2022-11-28T19:49:20.730Z,68.81
2022-11-28T19:51:49.654Z,68.38
2022-11-28T19:54:21.387Z,68.31
2022-11-28T19:56:51.887Z,68.93
2022-11-28T20:00:09.002Z,68.24
2022-11-28T20:02:41.296Z,68.71
2022-11-28T20:05:08.837Z,69.16
2022-11-28T20:07:36.610Z,69.10
2022-11-28T20:10:04.069Z,70.46
2022-11-28T20:12:31.852Z,70.04
2022-11-28T20:14:59.019Z,69.10
2022-11-28T20:17:26.027Z,68.43
2022-11-28T20:19:53.468Z,68.75
2022-11-28T20:22:22.901Z,68.54
2022-11-28T20:24:49.869Z,68.72
2022-11-28T20:27:17.678Z,69.19
2022-11-28T20:29:45.492Z,68.92
2022-11-28T20:32:12.848Z,68.49
2022-11-28T20:34:40.118Z,69.82
2022-11-28T20:37:07.113Z,69.72
2022-11-28T20:39:34.270Z,69.27
2022-11-28T20:42:01.487Z,68.78
2022-11-28T20:44:28.641Z,68.48
2022-11-28T20:47:03.062Z,69.30
2022-11-28T20:49:30.083Z,69.77
2022-11-28T20:52:00.231Z,69.38
2022-11-28T20:54:27.415Z,69.21
2022-11-28T20:57:20.326Z,68.73
2022-11-28T20:59:47.138Z,69.34
2022-11-28T21:02:16.643Z,68.86
2022-11-28T21:04:43.825Z,69.39
2022-11-28T21:07:12.630Z,68.66
2022-11-28T21:09:39.656Z,69.58
2022-11-28T21:12:06.893Z,69.35
2022-11-28T21:14:33.827Z,69.20
2022-11-28T21:17:01.431Z,69.11
2022-11-28T21:19:53.090Z,69.87
2022-11-28T21:22:20.121Z,70.01
2022-11-28T21:24:50.606Z,69.83
2022-11-28T21:27:17.663Z,70.30
2022-11-28T21:29:45.602Z,70.33
2022-11-28T21:32:15.355Z,69.69
2022-11-28T21:34:42.392Z,69.77
2022-11-28T21:37:09.372Z,69.66
2022-11-28T21:39:38.708Z,69.81
2022-11-28T21:42:07.444Z,70.01
2022-11-28T21:44:34.509Z,69.93
2022-11-28T21:47:03.579Z,69.63
2022-11-28T21:49:31.669Z,71.85
2022-11-28T21:51:58.801Z,75.60
2022-11-28T21:54:25.888Z,70.47
2022-11-28T21:56:52.777Z,69.55
2022-11-28T21:59:22.331Z,70.41
2022-11-28T22:01:50.293Z,70.47
2022-11-28T22:04:22.031Z,70.96
2022-11-28T22:06:51.058Z,71.02
2022-11-28T22:09:18.732Z,71.17
2022-11-28T22:11:45.742Z,70.73
2022-11-28T22:14:13.063Z,71.12
2022-11-28T22:16:40.142Z,70.19
2022-11-28T22:19:07.152Z,70.54
2022-11-28T22:21:53.016Z,70.67
2022-11-28T22:24:23.598Z,70.84
2022-11-28T22:26:50.697Z,70.59
2022-11-28T22:29:18.498Z,69.99
2022-11-28T22:31:45.786Z,70.87
2022-11-28T22:34:12.972Z,70.98
2022-11-28T22:36:40.474Z,71.37
2022-11-28T22:39:10.544Z,71.11
2022-11-28T22:41:38.092Z,70.75
2022-11-28T22:44:05.481Z,70.74
2022-11-28T22:46:32.853Z,70.71
2022-11-28T22:49:01.564Z,70.32
2022-11-28T22:51:29.822Z,70.32
2022-11-28T22:53:59.434Z,70.11
2022-11-28T22:56:29.214Z,70.09
2022-11-28T22:58:57.853Z,70.19
2022-11-28T23:01:29.682Z,70.66
2022-11-28T23:03:57.409Z,70.34
2022-11-28T23:06:27.666Z,69.76
2022-11-28T23:08:56.873Z,69.77
2022-11-28T23:12:42.355Z,70.59
2022-11-28T23:15:10.454Z,70.50
2022-11-28T23:17:37.567Z,70.20
2022-11-28T23:24:16.462Z,69.95
2022-11-28T23:26:45.007Z,69.84
2022-11-28T23:29:14.128Z,69.88
2022-11-28T23:31:43.543Z,70.14
2022-11-28T23:34:11.950Z,69.89
2022-11-28T23:36:45.092Z,70.84
2022-11-28T23:39:20.898Z,70.62
2022-11-28T23:41:48.407Z,70.62
2022-11-28T23:44:16.743Z,70.81
2022-11-28T23:46:44.596Z,70.31
2022-11-28T23:49:12.404Z,70.78
2022-11-28T23:51:43.192Z,70.81
2022-11-28T23:54:11.933Z,70.40
2022-11-28T23:56:40.404Z,71.10
2022-11-28T23:59:09.592Z,71.19
